Sect Canales, Puerto Rico
Current Conditions -  °F | °C
As of 1:56 PM on Wednesday 26 Nov 2014 (Local Time) from TJSJ Reporting Station
Scattered Clouds Scattered Clouds  
Wind Chill: 85°   Ceiling: Unl
Heat Index: 94°   Visibility: 10mi
Dew Point: 76°   Wind: 20mph
Humidity: 74%   Direction: 60°ENE
Pressure: 29.98"   Gusts: 24mph
Location:  18.2339°N, 65.9218°W
Report Text: TJSJ 261756Z 06017G21KT 10SM FEW027 SCT038 SCT080 29/24 A2998 RMK AO2 SLP152 VCSH SW 60011 T02940244 10300 20244 58023
Loading
Personal Weather Stations






























Interactive Weather Map New forecast layout! Learn more

10-Day Weather Forecast

Advertisements
Track Severe Weather on mobile